sensor_id;sensor_type;location;lat;lon;timestamp;temperature;humidity
49829;DHT22;35723;51.194;5.112;2023-02-28T00:00:27;3.50;99.90
49829;DHT22;35723;51.194;5.112;2023-02-28T00:02:53;3.50;99.90
49829;DHT22;35723;51.194;5.112;2023-02-28T00:05:21;3.40;99.90
49829;DHT22;35723;51.194;5.112;2023-02-28T00:07:47;3.40;99.90
49829;DHT22;35723;51.194;5.112;2023-02-28T00:10:17;3.50;99.90
49829;DHT22;35723;51.194;5.112;2023-02-28T00:12:50;3.50;99.90
49829;DHT22;35723;51.194;5.112;2023-02-28T00:15:17;3.50;99.90
49829;DHT22;35723;51.194;5.112;2023-02-28T00:17:42;3.50;99.90
49829;DHT22;35723;51.194;5.112;2023-02-28T00:20:09;3.40;99.90
49829;DHT22;35723;51.194;5.112;2023-02-28T00:22:36;3.40;99.90
49829;DHT22;35723;51.194;5.112;2023-02-28T00:25:03;3.40;99.90
49829;DHT22;35723;51.194;5.112;2023-02-28T00:27:30;3.40;99.90
49829;DHT22;35723;51.194;5.112;2023-02-28T00:29:55;3.30;99.90
49829;DHT22;35723;51.194;5.112;2023-02-28T00:32:21;3.30;99.90
49829;DHT22;35723;51.194;5.112;2023-02-28T00:34:47;3.30;99.90
49829;DHT22;35723;51.194;5.112;2023-02-28T00:37:12;3.30;99.90
49829;DHT22;35723;51.194;5.112;2023-02-28T00:39:39;3.30;99.90
49829;DHT22;35723;51.194;5.112;2023-02-28T00:42:05;3.30;99.90
49829;DHT22;35723;51.194;5.112;2023-02-28T00:44:31;3.40;99.90
49829;DHT22;35723;51.194;5.112;2023-02-28T00:46:58;3.40;99.90
49829;DHT22;35723;51.194;5.112;2023-02-28T00:49:24;3.40;99.90
49829;DHT22;35723;51.194;5.112;2023-02-28T00:51:50;3.40;99.90
49829;DHT22;35723;51.194;5.112;2023-02-28T00:54:16;3.50;99.90
49829;DHT22;35723;51.194;5.112;2023-02-28T00:56:42;3.50;99.90
49829;DHT22;35723;51.194;5.112;2023-02-28T00:59:08;3.60;99.90
49829;DHT22;35723;51.194;5.112;2023-02-28T01:01:34;3.40;99.90
49829;DHT22;35723;51.194;5.112;2023-02-28T01:03:59;3.50;99.90
49829;DHT22;35723;51.194;5.112;2023-02-28T01:06:25;3.60;99.90
49829;DHT22;35723;51.194;5.112;2023-02-28T01:08:51;3.50;99.90
49829;DHT22;35723;51.194;5.112;2023-02-28T01:11:18;3.50;99.90
49829;DHT22;35723;51.194;5.112;2023-02-28T01:13:45;3.40;99.90
49829;DHT22;35723;51.194;5.112;2023-02-28T01:16:11;3.50;99.90
49829;DHT22;35723;51.194;5.112;2023-02-28T01:18:37;3.50;99.90
49829;DHT22;35723;51.194;5.112;2023-02-28T01:21:05;3.40;99.90
49829;DHT22;35723;51.194;5.112;2023-02-28T01:23:30;3.40;99.90
49829;DHT22;35723;51.194;5.112;2023-02-28T01:25:56;3.40;99.90
49829;DHT22;35723;51.194;5.112;2023-02-28T01:28:22;3.30;99.90
49829;DHT22;35723;51.194;5.112;2023-02-28T01:30:49;3.30;99.90
49829;DHT22;35723;51.194;5.112;2023-02-28T01:33:15;3.40;99.90
49829;DHT22;35723;51.194;5.112;2023-02-28T01:35:40;3.40;99.90
49829;DHT22;35723;51.194;5.112;2023-02-28T01:38:06;3.40;99.90
49829;DHT22;35723;51.194;5.112;2023-02-28T01:40:32;3.40;99.90
49829;DHT22;35723;51.194;5.112;2023-02-28T01:42:58;3.40;99.90
49829;DHT22;35723;51.194;5.112;2023-02-28T01:45:29;3.30;99.90
49829;DHT22;35723;51.194;5.112;2023-02-28T01:47:59;3.30;99.90
49829;DHT22;35723;51.194;5.112;2023-02-28T01:50:28;3.30;99.90
49829;DHT22;35723;51.194;5.112;2023-02-28T01:52:57;3.20;99.90
49829;DHT22;35723;51.194;5.112;2023-02-28T01:55:26;3.20;99.90
49829;DHT22;35723;51.194;5.112;2023-02-28T01:57:56;3.20;99.90
49829;DHT22;35723;51.194;5.112;2023-02-28T02:00:25;3.20;99.90
49829;DHT22;35723;51.194;5.112;2023-02-28T02:02:55;3.00;99.90
49829;DHT22;35723;51.194;5.112;2023-02-28T02:05:28;3.00;99.90
49829;DHT22;35723;51.194;5.112;2023-02-28T02:08:00;3.00;99.90
49829;DHT22;35723;51.194;5.112;2023-02-28T02:10:36;3.00;99.90
49829;DHT22;35723;51.194;5.112;2023-02-28T02:30:33;3.10;99.90
49829;DHT22;35723;51.194;5.112;2023-02-28T02:38:34;3.00;99.90
49829;DHT22;35723;51.194;5.112;2023-02-28T02:41:24;3.00;99.90
49829;DHT22;35723;51.194;5.112;2023-02-28T02:43:53;3.00;99.90
49829;DHT22;35723;51.194;5.112;2023-02-28T02:46:37;3.10;99.90
49829;DHT22;35723;51.194;5.112;2023-02-28T02:49:08;3.10;99.90
49829;DHT22;35723;51.194;5.112;2023-02-28T02:51:36;3.10;99.90
49829;DHT22;35723;51.194;5.112;2023-02-28T02:54:35;3.10;99.90
49829;DHT22;35723;51.194;5.112;2023-02-28T02:57:06;3.10;99.90
49829;DHT22;35723;51.194;5.112;2023-02-28T02:59:35;3.00;99.90
49829;DHT22;35723;51.194;5.112;2023-02-28T03:02:04;3.00;99.90
49829;DHT22;35723;51.194;5.112;2023-02-28T03:04:37;3.00;99.90
49829;DHT22;35723;51.194;5.112;2023-02-28T03:07:04;3.00;99.90
49829;DHT22;35723;51.194;5.112;2023-02-28T03:09:33;3.00;99.90
49829;DHT22;35723;51.194;5.112;2023-02-28T03:11:59;3.10;99.90
49829;DHT22;35723;51.194;5.112;2023-02-28T03:17:17;3.10;99.90
49829;DHT22;35723;51.194;5.112;2023-02-28T03:28:14;3.10;99.90
49829;DHT22;35723;51.194;5.112;2023-02-28T03:30:46;3.10;99.90
49829;DHT22;35723;51.194;5.112;2023-02-28T03:33:24;2.80;99.90
49829;DHT22;35723;51.194;5.112;2023-02-28T03:35:56;2.70;99.90
49829;DHT22;35723;51.194;5.112;2023-02-28T03:38:33;2.70;99.90
49829;DHT22;35723;51.194;5.112;2023-02-28T03:41:07;2.70;99.90
49829;DHT22;35723;51.194;5.112;2023-02-28T03:43:39;2.80;99.90
49829;DHT22;35723;51.194;5.112;2023-02-28T03:46:09;2.80;99.90
49829;DHT22;35723;51.194;5.112;2023-02-28T03:51:09;2.80;99.90
49829;DHT22;35723;51.194;5.112;2023-02-28T03:53:39;2.80;99.90
49829;DHT22;35723;51.194;5.112;2023-02-28T03:56:31;2.80;99.90
49829;DHT22;35723;51.194;5.112;2023-02-28T03:59:10;2.80;99.90
49829;DHT22;35723;51.194;5.112;2023-02-28T04:01:43;2.80;99.90
49829;DHT22;35723;51.194;5.112;2023-02-28T04:04:10;2.90;99.90
49829;DHT22;35723;51.194;5.112;2023-02-28T04:06:37;2.80;99.90
49829;DHT22;35723;51.194;5.112;2023-02-28T04:09:04;2.80;99.90
49829;DHT22;35723;51.194;5.112;2023-02-28T04:14:03;2.90;99.90
49829;DHT22;35723;51.194;5.112;2023-02-28T04:16:31;2.90;99.90
49829;DHT22;35723;51.194;5.112;2023-02-28T04:18:57;2.90;99.90
49829;DHT22;35723;51.194;5.112;2023-02-28T04:21:28;2.80;99.90
49829;DHT22;35723;51.194;5.112;2023-02-28T04:23:55;2.80;99.90
49829;DHT22;35723;51.194;5.112;2023-02-28T04:26:20;2.70;99.90
49829;DHT22;35723;51.194;5.112;2023-02-28T04:28:46;2.70;99.90
49829;DHT22;35723;51.194;5.112;2023-02-28T04:31:12;2.80;99.90
49829;DHT22;35723;51.194;5.112;2023-02-28T04:33:37;2.90;99.90
49829;DHT22;35723;51.194;5.112;2023-02-28T04:36:06;2.80;99.90
49829;DHT22;35723;51.194;5.112;2023-02-28T04:38:37;2.90;99.90
49829;DHT22;35723;51.194;5.112;2023-02-28T04:41:03;2.90;99.90
49829;DHT22;35723;51.194;5.112;2023-02-28T04:43:30;2.90;99.90
49829;DHT22;35723;51.194;5.112;2023-02-28T04:45:57;3.00;99.90
49829;DHT22;35723;51.194;5.112;2023-02-28T04:48:30;2.90;99.90
49829;DHT22;35723;51.194;5.112;2023-02-28T04:51:00;3.00;99.90
49829;DHT22;35723;51.194;5.112;2023-02-28T04:53:27;2.90;99.90
49829;DHT22;35723;51.194;5.112;2023-02-28T04:55:55;3.00;99.90
49829;DHT22;35723;51.194;5.112;2023-02-28T04:58:21;3.00;99.90
49829;DHT22;35723;51.194;5.112;2023-02-28T05:00:52;3.00;99.90
49829;DHT22;35723;51.194;5.112;2023-02-28T05:03:18;3.00;99.90
49829;DHT22;35723;51.194;5.112;2023-02-28T05:05:44;3.00;99.90
49829;DHT22;35723;51.194;5.112;2023-02-28T05:08:10;3.00;99.90
49829;DHT22;35723;51.194;5.112;2023-02-28T05:10:36;3.00;99.90
49829;DHT22;35723;51.194;5.112;2023-02-28T05:13:01;3.10;99.90
49829;DHT22;35723;51.194;5.112;2023-02-28T05:15:27;3.10;99.90
49829;DHT22;35723;51.194;5.112;2023-02-28T05:17:53;3.10;99.90
49829;DHT22;35723;51.194;5.112;2023-02-28T05:20:19;3.10;99.90
49829;DHT22;35723;51.194;5.112;2023-02-28T05:22:46;3.10;99.90
49829;DHT22;35723;51.194;5.112;2023-02-28T05:25:15;3.10;99.90
49829;DHT22;35723;51.194;5.112;2023-02-28T05:27:41;3.10;99.90
49829;DHT22;35723;51.194;5.112;2023-02-28T05:30:08;3.10;99.90
49829;DHT22;35723;51.194;5.112;2023-02-28T05:32:40;3.10;99.90
49829;DHT22;35723;51.194;5.112;2023-02-28T05:35:10;3.30;99.90
49829;DHT22;35723;51.194;5.112;2023-02-28T05:37:37;3.20;99.90
49829;DHT22;35723;51.194;5.112;2023-02-28T05:40:05;3.30;99.90
49829;DHT22;35723;51.194;5.112;2023-02-28T05:42:37;3.20;99.90
49829;DHT22;35723;51.194;5.112;2023-02-28T05:45:04;3.20;99.90
49829;DHT22;35723;51.194;5.112;2023-02-28T05:47:30;3.20;99.90
49829;DHT22;35723;51.194;5.112;2023-02-28T05:49:56;3.10;99.90
49829;DHT22;35723;51.194;5.112;2023-02-28T05:52:22;3.20;99.90
49829;DHT22;35723;51.194;5.112;2023-02-28T05:54:47;3.20;99.90
49829;DHT22;35723;51.194;5.112;2023-02-28T05:57:13;3.10;99.90
49829;DHT22;35723;51.194;5.112;2023-02-28T05:59:39;3.20;99.90
49829;DHT22;35723;51.194;5.112;2023-02-28T06:02:10;3.30;99.90
49829;DHT22;35723;51.194;5.112;2023-02-28T06:04:37;3.30;99.90
49829;DHT22;35723;51.194;5.112;2023-02-28T06:07:03;3.30;99.90
49829;DHT22;35723;51.194;5.112;2023-02-28T06:09:28;3.30;99.90
49829;DHT22;35723;51.194;5.112;2023-02-28T06:11:54;3.30;99.90
49829;DHT22;35723;51.194;5.112;2023-02-28T06:14:22;3.30;99.90
49829;DHT22;35723;51.194;5.112;2023-02-28T06:16:48;3.30;99.90
49829;DHT22;35723;51.194;5.112;2023-02-28T06:19:13;3.30;99.90
49829;DHT22;35723;51.194;5.112;2023-02-28T06:21:40;3.30;99.90
49829;DHT22;35723;51.194;5.112;2023-02-28T06:24:11;3.30;99.90
49829;DHT22;35723;51.194;5.112;2023-02-28T06:30:05;3.30;99.90
49829;DHT22;35723;51.194;5.112;2023-02-28T06:32:51;3.20;99.90
49829;DHT22;35723;51.194;5.112;2023-02-28T06:35:17;3.30;99.90
49829;DHT22;35723;51.194;5.112;2023-02-28T06:37:43;3.20;99.90
49829;DHT22;35723;51.194;5.112;2023-02-28T06:43:34;3.40;99.90
49829;DHT22;35723;51.194;5.112;2023-02-28T06:46:02;3.30;99.90
49829;DHT22;35723;51.194;5.112;2023-02-28T06:48:28;3.20;99.90
49829;DHT22;35723;51.194;5.112;2023-02-28T06:51:18;3.20;99.90
49829;DHT22;35723;51.194;5.112;2023-02-28T06:53:45;3.20;99.90
49829;DHT22;35723;51.194;5.112;2023-02-28T06:56:13;3.20;99.90
49829;DHT22;35723;51.194;5.112;2023-02-28T06:58:39;3.10;99.90
49829;DHT22;35723;51.194;5.112;2023-02-28T07:01:06;3.20;99.90
49829;DHT22;35723;51.194;5.112;2023-02-28T07:03:32;3.20;99.90
49829;DHT22;35723;51.194;5.112;2023-02-28T07:05:58;3.20;99.90
49829;DHT22;35723;51.194;5.112;2023-02-28T07:08:25;3.30;99.90
49829;DHT22;35723;51.194;5.112;2023-02-28T07:10:54;3.20;99.90
49829;DHT22;35723;51.194;5.112;2023-02-28T07:16:30;3.30;99.90
49829;DHT22;35723;51.194;5.112;2023-02-28T07:18:56;3.30;99.90
49829;DHT22;35723;51.194;5.112;2023-02-28T07:21:21;3.30;99.90
49829;DHT22;35723;51.194;5.112;2023-02-28T07:23:47;3.30;99.90
49829;DHT22;35723;51.194;5.112;2023-02-28T07:26:16;3.30;99.90
49829;DHT22;35723;51.194;5.112;2023-02-28T07:28:43;3.40;99.90
49829;DHT22;35723;51.194;5.112;2023-02-28T07:31:09;3.40;99.90
49829;DHT22;35723;51.194;5.112;2023-02-28T07:33:35;3.50;99.90
49829;DHT22;35723;51.194;5.112;2023-02-28T07:36:06;3.50;99.90
49829;DHT22;35723;51.194;5.112;2023-02-28T07:38:36;3.60;99.90
49829;DHT22;35723;51.194;5.112;2023-02-28T07:41:03;3.60;99.90
49829;DHT22;35723;51.194;5.112;2023-02-28T07:46:14;3.70;99.90
49829;DHT22;35723;51.194;5.112;2023-02-28T07:49:17;3.60;99.90
49829;DHT22;35723;51.194;5.112;2023-02-28T07:51:43;3.80;99.90
49829;DHT22;35723;51.194;5.112;2023-02-28T07:54:31;3.90;99.90
49829;DHT22;35723;51.194;5.112;2023-02-28T07:57:15;3.80;99.90
49829;DHT22;35723;51.194;5.112;2023-02-28T07:59:41;4.00;99.90
49829;DHT22;35723;51.194;5.112;2023-02-28T08:02:14;4.10;99.90
49829;DHT22;35723;51.194;5.112;2023-02-28T08:04:40;4.20;99.90
49829;DHT22;35723;51.194;5.112;2023-02-28T08:07:22;4.20;99.90
49829;DHT22;35723;51.194;5.112;2023-02-28T08:20:27;4.40;99.90
49829;DHT22;35723;51.194;5.112;2023-02-28T08:33:07;5.00;99.90
49829;DHT22;35723;51.194;5.112;2023-02-28T08:43:02;5.10;99.90
49829;DHT22;35723;51.194;5.112;2023-02-28T10:38:27;7.50;95.10
49829;DHT22;35723;51.194;5.112;2023-02-28T10:50:55;7.60;94.10
49829;DHT22;35723;51.194;5.112;2023-02-28T10:53:55;7.50;93.60
49829;DHT22;35723;51.194;5.112;2023-02-28T10:56:24;7.60;93.60
49829;DHT22;35723;51.194;5.112;2023-02-28T11:02:37;7.60;92.70
49829;DHT22;35723;51.194;5.112;2023-02-28T11:05:50;7.70;92.80
49829;DHT22;35723;51.194;5.112;2023-02-28T11:08:31;7.80;93.10
49829;DHT22;35723;51.194;5.112;2023-02-28T11:11:06;7.80;93.00
49829;DHT22;35723;51.194;5.112;2023-02-28T11:13:34;7.80;92.40
49829;DHT22;35723;51.194;5.112;2023-02-28T11:16:05;7.80;92.90
49829;DHT22;35723;51.194;5.112;2023-02-28T11:24:43;8.00;91.90
49829;DHT22;35723;51.194;5.112;2023-02-28T11:30:38;8.10;92.70
49829;DHT22;35723;51.194;5.112;2023-02-28T11:38:56;8.20;91.20
49829;DHT22;35723;51.194;5.112;2023-02-28T12:01:03;8.40;89.50
49829;DHT22;35723;51.194;5.112;2023-02-28T12:06:50;8.30;90.30
49829;DHT22;35723;51.194;5.112;2023-02-28T12:20:49;8.50;89.70
49829;DHT22;35723;51.194;5.112;2023-02-28T12:26:00;8.60;90.00
49829;DHT22;35723;51.194;5.112;2023-02-28T12:28:33;8.60;90.10
49829;DHT22;35723;51.194;5.112;2023-02-28T12:31:24;8.70;89.80
49829;DHT22;35723;51.194;5.112;2023-02-28T12:34:25;8.70;90.00
49829;DHT22;35723;51.194;5.112;2023-02-28T12:36:54;8.80;89.70
49829;DHT22;35723;51.194;5.112;2023-02-28T12:39:26;8.80;88.90
49829;DHT22;35723;51.194;5.112;2023-02-28T12:41:56;8.80;88.60
49829;DHT22;35723;51.194;5.112;2023-02-28T12:44:33;8.70;89.10
49829;DHT22;35723;51.194;5.112;2023-02-28T12:47:03;8.70;89.60
49829;DHT22;35723;51.194;5.112;2023-02-28T12:49:34;8.50;90.30
49829;DHT22;35723;51.194;5.112;2023-02-28T12:52:03;8.60;90.30
49829;DHT22;35723;51.194;5.112;2023-02-28T12:54:41;8.60;90.20
49829;DHT22;35723;51.194;5.112;2023-02-28T12:57:32;8.80;89.80
49829;DHT22;35723;51.194;5.112;2023-02-28T13:00:08;8.70;90.00
49829;DHT22;35723;51.194;5.112;2023-02-28T13:11:02;8.70;90.10
49829;DHT22;35723;51.194;5.112;2023-02-28T13:13:30;8.60;90.40
49829;DHT22;35723;51.194;5.112;2023-02-28T13:18:33;8.70;90.10
49829;DHT22;35723;51.194;5.112;2023-02-28T13:21:01;8.70;90.40
49829;DHT22;35723;51.194;5.112;2023-02-28T13:23:40;8.70;90.80
49829;DHT22;35723;51.194;5.112;2023-02-28T13:26:06;8.80;90.30
49829;DHT22;35723;51.194;5.112;2023-02-28T13:31:18;8.80;90.20
49829;DHT22;35723;51.194;5.112;2023-02-28T13:38:44;8.80;90.70
49829;DHT22;35723;51.194;5.112;2023-02-28T13:46:31;8.90;90.00
49829;DHT22;35723;51.194;5.112;2023-02-28T14:05:01;8.80;90.30
49829;DHT22;35723;51.194;5.112;2023-02-28T14:07:33;8.80;90.20
49829;DHT22;35723;51.194;5.112;2023-02-28T14:10:05;8.70;89.80
49829;DHT22;35723;51.194;5.112;2023-02-28T14:17:56;8.80;89.30
49829;DHT22;35723;51.194;5.112;2023-02-28T14:20:29;8.80;89.40
49829;DHT22;35723;51.194;5.112;2023-02-28T14:31:29;8.70;90.10
49829;DHT22;35723;51.194;5.112;2023-02-28T14:37:02;8.80;89.60
49829;DHT22;35723;51.194;5.112;2023-02-28T14:39:29;8.70;88.70
49829;DHT22;35723;51.194;5.112;2023-02-28T14:41:58;8.70;89.40
49829;DHT22;35723;51.194;5.112;2023-02-28T14:44:29;8.80;90.00
49829;DHT22;35723;51.194;5.112;2023-02-28T14:47:00;8.80;90.30
49829;DHT22;35723;51.194;5.112;2023-02-28T14:49:58;8.70;90.20
49829;DHT22;35723;51.194;5.112;2023-02-28T14:52:26;8.70;90.50
49829;DHT22;35723;51.194;5.112;2023-02-28T14:54:55;8.80;90.60
49829;DHT22;35723;51.194;5.112;2023-02-28T14:57:39;8.80;90.60
49829;DHT22;35723;51.194;5.112;2023-02-28T15:00:22;8.80;90.30
49829;DHT22;35723;51.194;5.112;2023-02-28T15:02:48;8.80;90.30
49829;DHT22;35723;51.194;5.112;2023-02-28T15:07:46;8.70;90.00
49829;DHT22;35723;51.194;5.112;2023-02-28T15:10:26;8.60;90.00
49829;DHT22;35723;51.194;5.112;2023-02-28T15:13:01;8.60;90.30
49829;DHT22;35723;51.194;5.112;2023-02-28T15:15:57;8.50;90.40
49829;DHT22;35723;51.194;5.112;2023-02-28T15:21:02;8.50;90.50
49829;DHT22;35723;51.194;5.112;2023-02-28T15:23:29;8.40;90.70
49829;DHT22;35723;51.194;5.112;2023-02-28T15:25:55;8.30;90.90
49829;DHT22;35723;51.194;5.112;2023-02-28T15:28:22;8.30;90.80
49829;DHT22;35723;51.194;5.112;2023-02-28T15:31:02;8.50;91.00
49829;DHT22;35723;51.194;5.112;2023-02-28T15:33:32;8.50;91.00
49829;DHT22;35723;51.194;5.112;2023-02-28T15:36:17;8.50;90.80
49829;DHT22;35723;51.194;5.112;2023-02-28T15:38:51;8.30;91.00
49829;DHT22;35723;51.194;5.112;2023-02-28T15:41:25;8.30;91.20
49829;DHT22;35723;51.194;5.112;2023-02-28T15:46:44;8.10;91.10
49829;DHT22;35723;51.194;5.112;2023-02-28T15:49:19;8.10;91.50
49829;DHT22;35723;51.194;5.112;2023-02-28T15:51:45;8.10;90.60
49829;DHT22;35723;51.194;5.112;2023-02-28T15:54:28;7.90;90.80
49829;DHT22;35723;51.194;5.112;2023-02-28T15:57:04;7.80;91.10
49829;DHT22;35723;51.194;5.112;2023-02-28T15:59:35;7.90;91.40
49829;DHT22;35723;51.194;5.112;2023-02-28T16:02:12;7.90;91.60
49829;DHT22;35723;51.194;5.112;2023-02-28T16:07:24;8.10;91.50
49829;DHT22;35723;51.194;5.112;2023-02-28T16:09:50;8.10;91.70
49829;DHT22;35723;51.194;5.112;2023-02-28T16:12:16;8.10;91.40
49829;DHT22;35723;51.194;5.112;2023-02-28T16:14:42;8.10;91.50
49829;DHT22;35723;51.194;5.112;2023-02-28T16:17:23;8.10;91.50
49829;DHT22;35723;51.194;5.112;2023-02-28T16:19:49;8.10;91.30
49829;DHT22;35723;51.194;5.112;2023-02-28T16:22:15;8.10;91.20
49829;DHT22;35723;51.194;5.112;2023-02-28T16:24:41;8.20;91.00
49829;DHT22;35723;51.194;5.112;2023-02-28T16:27:09;8.10;91.00
49829;DHT22;35723;51.194;5.112;2023-02-28T16:29:40;8.20;91.00
49829;DHT22;35723;51.194;5.112;2023-02-28T16:32:06;8.20;91.10
49829;DHT22;35723;51.194;5.112;2023-02-28T16:34:32;8.20;91.10
49829;DHT22;35723;51.194;5.112;2023-02-28T16:36:58;8.10;91.20
49829;DHT22;35723;51.194;5.112;2023-02-28T16:39:24;8.00;91.40
49829;DHT22;35723;51.194;5.112;2023-02-28T16:41:50;7.90;91.80
49829;DHT22;35723;51.194;5.112;2023-02-28T16:44:29;7.90;91.80
49829;DHT22;35723;51.194;5.112;2023-02-28T16:46:55;7.90;91.80
49829;DHT22;35723;51.194;5.112;2023-02-28T16:49:21;7.90;92.00
49829;DHT22;35723;51.194;5.112;2023-02-28T16:51:47;7.80;92.20
49829;DHT22;35723;51.194;5.112;2023-02-28T16:54:12;7.80;92.10
49829;DHT22;35723;51.194;5.112;2023-02-28T16:56:42;7.80;92.20
49829;DHT22;35723;51.194;5.112;2023-02-28T16:59:09;7.70;92.50
49829;DHT22;35723;51.194;5.112;2023-02-28T17:01:35;7.60;92.80
49829;DHT22;35723;51.194;5.112;2023-02-28T17:04:01;7.60;92.70
49829;DHT22;35723;51.194;5.112;2023-02-28T17:06:28;7.50;92.80
49829;DHT22;35723;51.194;5.112;2023-02-28T17:08:55;7.60;92.80
49829;DHT22;35723;51.194;5.112;2023-02-28T17:11:21;7.60;92.90
49829;DHT22;35723;51.194;5.112;2023-02-28T17:13:47;7.50;93.20
49829;DHT22;35723;51.194;5.112;2023-02-28T17:16:33;7.50;93.60
49829;DHT22;35723;51.194;5.112;2023-02-28T17:19:02;7.40;93.20
49829;DHT22;35723;51.194;5.112;2023-02-28T17:21:29;7.30;93.70
49829;DHT22;35723;51.194;5.112;2023-02-28T17:23:55;7.30;93.80
49829;DHT22;35723;51.194;5.112;2023-02-28T17:26:21;7.20;94.00
49829;DHT22;35723;51.194;5.112;2023-02-28T17:28:50;7.20;94.00
49829;DHT22;35723;51.194;5.112;2023-02-28T17:31:16;7.20;94.10
49829;DHT22;35723;51.194;5.112;2023-02-28T17:33:43;7.10;94.30
49829;DHT22;35723;51.194;5.112;2023-02-28T17:36:18;7.00;94.20
49829;DHT22;35723;51.194;5.112;2023-02-28T17:38:47;7.00;94.30
49829;DHT22;35723;51.194;5.112;2023-02-28T17:41:13;6.90;94.50
49829;DHT22;35723;51.194;5.112;2023-02-28T17:43:39;6.70;95.10
49829;DHT22;35723;51.194;5.112;2023-02-28T17:46:05;6.70;95.00
49829;DHT22;35723;51.194;5.112;2023-02-28T17:48:32;6.70;95.00
49829;DHT22;35723;51.194;5.112;2023-02-28T17:50:58;6.60;95.00
49829;DHT22;35723;51.194;5.112;2023-02-28T17:53:23;6.60;95.10
49829;DHT22;35723;51.194;5.112;2023-02-28T18:44:31;5.60;97.30
49829;DHT22;35723;51.194;5.112;2023-02-28T18:57:16;5.40;97.80
49829;DHT22;35723;51.194;5.112;2023-02-28T19:03:22;5.30;98.20
49829;DHT22;35723;51.194;5.112;2023-02-28T19:16:00;5.10;98.10
49829;DHT22;35723;51.194;5.112;2023-02-28T19:18:46;4.90;98.50
49829;DHT22;35723;51.194;5.112;2023-02-28T19:21:16;4.90;99.00
49829;DHT22;35723;51.194;5.112;2023-02-28T19:24:06;5.00;99.00
49829;DHT22;35723;51.194;5.112;2023-02-28T19:30:11;5.00;98.30
49829;DHT22;35723;51.194;5.112;2023-02-28T19:36:08;4.90;98.50
49829;DHT22;35723;51.194;5.112;2023-02-28T19:42:08;4.70;98.90
49829;DHT22;35723;51.194;5.112;2023-02-28T19:47:57;4.50;99.30
49829;DHT22;35723;51.194;5.112;2023-02-28T19:50:42;4.60;99.50
49829;DHT22;35723;51.194;5.112;2023-02-28T19:53:08;4.60;99.50
49829;DHT22;35723;51.194;5.112;2023-02-28T19:55:33;4.60;99.30
49829;DHT22;35723;51.194;5.112;2023-02-28T19:58:02;4.60;99.50
49829;DHT22;35723;51.194;5.112;2023-02-28T20:03:31;4.50;99.60
49829;DHT22;35723;51.194;5.112;2023-02-28T20:06:03;4.40;99.70
49829;DHT22;35723;51.194;5.112;2023-02-28T20:08:44;4.40;99.80
49829;DHT22;35723;51.194;5.112;2023-02-28T20:14:37;4.30;99.90
49829;DHT22;35723;51.194;5.112;2023-02-28T20:17:03;4.30;99.90
49829;DHT22;35723;51.194;5.112;2023-02-28T20:19:29;4.30;99.90
49829;DHT22;35723;51.194;5.112;2023-02-28T20:21:55;4.30;99.90
49829;DHT22;35723;51.194;5.112;2023-02-28T20:27:45;4.20;99.90
49829;DHT22;35723;51.194;5.112;2023-02-28T20:30:11;4.10;99.90
49829;DHT22;35723;51.194;5.112;2023-02-28T20:32:41;4.10;99.90
49829;DHT22;35723;51.194;5.112;2023-02-28T20:38:38;4.10;99.90
49829;DHT22;35723;51.194;5.112;2023-02-28T20:41:04;4.20;99.90
49829;DHT22;35723;51.194;5.112;2023-02-28T20:43:31;4.20;99.90
49829;DHT22;35723;51.194;5.112;2023-02-28T20:46:04;4.10;99.90
49829;DHT22;35723;51.194;5.112;2023-02-28T20:51:53;4.10;99.90
49829;DHT22;35723;51.194;5.112;2023-02-28T20:57:43;4.10;99.90
49829;DHT22;35723;51.194;5.112;2023-02-28T21:00:28;4.00;99.90
49829;DHT22;35723;51.194;5.112;2023-02-28T21:02:54;3.90;99.90
49829;DHT22;35723;51.194;5.112;2023-02-28T21:05:20;3.80;99.90
49829;DHT22;35723;51.194;5.112;2023-02-28T21:11:12;3.90;99.90
49829;DHT22;35723;51.194;5.112;2023-02-28T21:13:38;3.80;99.90
49829;DHT22;35723;51.194;5.112;2023-02-28T21:16:06;3.80;99.90
49829;DHT22;35723;51.194;5.112;2023-02-28T21:18:34;3.60;99.90
49829;DHT22;35723;51.194;5.112;2023-02-28T21:24:37;3.50;99.90
49829;DHT22;35723;51.194;5.112;2023-02-28T21:27:03;3.60;99.90
49829;DHT22;35723;51.194;5.112;2023-02-28T21:29:29;3.40;99.90
49829;DHT22;35723;51.194;5.112;2023-02-28T21:31:55;3.50;99.90
49829;DHT22;35723;51.194;5.112;2023-02-28T21:34:20;3.40;99.90
49829;DHT22;35723;51.194;5.112;2023-02-28T21:36:46;3.40;99.90
49829;DHT22;35723;51.194;5.112;2023-02-28T21:39:18;3.40;99.90
49829;DHT22;35723;51.194;5.112;2023-02-28T21:41:44;3.50;99.90
49829;DHT22;35723;51.194;5.112;2023-02-28T21:44:11;3.60;99.90
49829;DHT22;35723;51.194;5.112;2023-02-28T21:46:43;3.60;99.90
49829;DHT22;35723;51.194;5.112;2023-02-28T21:49:10;3.50;99.90
49829;DHT22;35723;51.194;5.112;2023-02-28T21:51:35;3.60;99.90
49829;DHT22;35723;51.194;5.112;2023-02-28T21:54:01;3.70;99.90
49829;DHT22;35723;51.194;5.112;2023-02-28T21:56:32;3.70;99.90
49829;DHT22;35723;51.194;5.112;2023-02-28T21:58:58;3.70;99.90
49829;DHT22;35723;51.194;5.112;2023-02-28T22:01:33;3.70;99.90
49829;DHT22;35723;51.194;5.112;2023-02-28T22:04:00;3.80;99.90
49829;DHT22;35723;51.194;5.112;2023-02-28T22:06:28;3.80;99.90
49829;DHT22;35723;51.194;5.112;2023-02-28T22:08:56;3.90;99.90
49829;DHT22;35723;51.194;5.112;2023-02-28T22:11:23;3.90;99.90
49829;DHT22;35723;51.194;5.112;2023-02-28T22:13:52;3.90;99.90
49829;DHT22;35723;51.194;5.112;2023-02-28T22:16:19;4.00;99.90
49829;DHT22;35723;51.194;5.112;2023-02-28T22:18:45;4.00;99.90
49829;DHT22;35723;51.194;5.112;2023-02-28T22:21:12;4.00;99.90
49829;DHT22;35723;51.194;5.112;2023-02-28T22:23:39;3.90;99.90
49829;DHT22;35723;51.194;5.112;2023-02-28T22:26:08;3.80;99.90
49829;DHT22;35723;51.194;5.112;2023-02-28T22:28:35;3.70;99.90
49829;DHT22;35723;51.194;5.112;2023-02-28T22:33:46;3.60;99.90
49829;DHT22;35723;51.194;5.112;2023-02-28T22:36:14;3.60;99.90
49829;DHT22;35723;51.194;5.112;2023-02-28T22:38:41;3.60;99.90
49829;DHT22;35723;51.194;5.112;2023-02-28T22:41:08;3.60;99.90
49829;DHT22;35723;51.194;5.112;2023-02-28T22:43:34;3.60;99.90
49829;DHT22;35723;51.194;5.112;2023-02-28T22:46:04;3.70;99.90
49829;DHT22;35723;51.194;5.112;2023-02-28T22:48:31;3.60;99.90
49829;DHT22;35723;51.194;5.112;2023-02-28T22:51:13;3.60;99.90
49829;DHT22;35723;51.194;5.112;2023-02-28T22:53:40;3.60;99.90
49829;DHT22;35723;51.194;5.112;2023-02-28T22:56:08;3.60;99.90
49829;DHT22;35723;51.194;5.112;2023-02-28T22:58:35;3.60;99.90
49829;DHT22;35723;51.194;5.112;2023-02-28T23:01:20;3.50;99.90
49829;DHT22;35723;51.194;5.112;2023-02-28T23:03:46;3.50;99.90
49829;DHT22;35723;51.194;5.112;2023-02-28T23:06:13;3.50;99.90
49829;DHT22;35723;51.194;5.112;2023-02-28T23:08:40;3.40;99.90
49829;DHT22;35723;51.194;5.112;2023-02-28T23:11:06;3.40;99.90
49829;DHT22;35723;51.194;5.112;2023-02-28T23:13:32;3.40;99.90
49829;DHT22;35723;51.194;5.112;2023-02-28T23:15:58;3.40;99.90
49829;DHT22;35723;51.194;5.112;2023-02-28T23:18:24;3.30;99.90
49829;DHT22;35723;51.194;5.112;2023-02-28T23:20:49;3.40;99.90
49829;DHT22;35723;51.194;5.112;2023-02-28T23:23:15;3.50;99.90